sensor_id;sensor_type;location;lat;lon;timestamp;P1;durP1;ratioP1;P2;durP2;ratioP2
34481;SDS011;20720;48.886;9.388;2023-11-21T00:00:20;5.20;;;1.27;;
34481;SDS011;20720;48.886;9.388;2023-11-21T00:02:46;2.08;;;1.00;;
34481;SDS011;20720;48.886;9.388;2023-11-21T00:05:12;5.03;;;1.30;;
34481;SDS011;20720;48.886;9.388;2023-11-21T00:07:42;3.10;;;1.00;;
34481;SDS011;20720;48.886;9.388;2023-11-21T00:10:08;3.90;;;1.02;;
34481;SDS011;20720;48.886;9.388;2023-11-21T00:12:35;7.35;;;1.50;;
34481;SDS011;20720;48.886;9.388;2023-11-21T00:15:01;4.35;;;1.60;;
34481;SDS011;20720;48.886;9.388;2023-11-21T00:17:30;4.55;;;1.42;;
34481;SDS011;20720;48.886;9.388;2023-11-21T00:19:55;8.68;;;1.58;;
34481;SDS011;20720;48.886;9.388;2023-11-21T00:22:21;9.18;;;1.83;;
34481;SDS011;20720;48.886;9.388;2023-11-21T00:24:46;8.60;;;1.70;;
34481;SDS011;20720;48.886;9.388;2023-11-21T00:27:12;5.40;;;1.55;;
34481;SDS011;20720;48.886;9.388;2023-11-21T00:29:38;4.53;;;1.15;;
34481;SDS011;20720;48.886;9.388;2023-11-21T00:32:04;4.85;;;1.35;;
34481;SDS011;20720;48.886;9.388;2023-11-21T00:34:30;11.50;;;1.83;;
34481;SDS011;20720;48.886;9.388;2023-11-21T00:36:56;5.78;;;1.40;;
34481;SDS011;20720;48.886;9.388;2023-11-21T00:39:21;8.05;;;1.80;;
34481;SDS011;20720;48.886;9.388;2023-11-21T00:41:46;5.45;;;1.60;;
34481;SDS011;20720;48.886;9.388;2023-11-21T00:44:13;6.03;;;1.20;;
34481;SDS011;20720;48.886;9.388;2023-11-21T00:46:38;5.45;;;1.40;;
34481;SDS011;20720;48.886;9.388;2023-11-21T00:49:03;5.72;;;1.70;;
34481;SDS011;20720;48.886;9.388;2023-11-21T00:51:29;5.45;;;1.50;;
34481;SDS011;20720;48.886;9.388;2023-11-21T00:53:55;6.32;;;1.95;;
34481;SDS011;20720;48.886;9.388;2023-11-21T00:56:20;10.50;;;2.00;;
34481;SDS011;20720;48.886;9.388;2023-11-21T00:58:45;6.18;;;1.50;;
34481;SDS011;20720;48.886;9.388;2023-11-21T01:01:14;4.13;;;1.35;;
34481;SDS011;20720;48.886;9.388;2023-11-21T01:03:40;6.65;;;1.63;;
34481;SDS011;20720;48.886;9.388;2023-11-21T01:06:05;5.20;;;1.33;;
34481;SDS011;20720;48.886;9.388;2023-11-21T01:08:32;5.70;;;1.40;;
34481;SDS011;20720;48.886;9.388;2023-11-21T01:10:58;5.68;;;1.17;;
34481;SDS011;20720;48.886;9.388;2023-11-21T01:13:23;9.70;;;1.88;;
34481;SDS011;20720;48.886;9.388;2023-11-21T01:15:54;7.65;;;1.65;;
34481;SDS011;20720;48.886;9.388;2023-11-21T01:18:20;4.70;;;1.25;;
34481;SDS011;20720;48.886;9.388;2023-11-21T01:20:45;7.18;;;1.40;;
34481;SDS011;20720;48.886;9.388;2023-11-21T01:23:12;7.95;;;1.60;;
34481;SDS011;20720;48.886;9.388;2023-11-21T01:25:37;5.10;;;1.40;;
34481;SDS011;20720;48.886;9.388;2023-11-21T01:28:03;4.72;;;1.48;;
34481;SDS011;20720;48.886;9.388;2023-11-21T01:30:28;7.72;;;1.50;;
34481;SDS011;20720;48.886;9.388;2023-11-21T01:32:54;5.13;;;1.30;;
34481;SDS011;20720;48.886;9.388;2023-11-21T01:35:19;7.20;;;1.50;;
34481;SDS011;20720;48.886;9.388;2023-11-21T01:37:44;6.00;;;1.25;;
34481;SDS011;20720;48.886;9.388;2023-11-21T01:40:10;3.85;;;1.20;;
34481;SDS011;20720;48.886;9.388;2023-11-21T01:42:38;7.57;;;1.73;;
34481;SDS011;20720;48.886;9.388;2023-11-21T01:45:04;5.75;;;1.30;;
34481;SDS011;20720;48.886;9.388;2023-11-21T01:47:30;7.13;;;1.33;;
34481;SDS011;20720;48.886;9.388;2023-11-21T01:49:57;4.97;;;1.42;;
34481;SDS011;20720;48.886;9.388;2023-11-21T01:52:23;5.88;;;1.38;;
34481;SDS011;20720;48.886;9.388;2023-11-21T01:54:49;6.68;;;1.55;;
34481;SDS011;20720;48.886;9.388;2023-11-21T01:57:15;4.80;;;0.95;;
34481;SDS011;20720;48.886;9.388;2023-11-21T01:59:40;5.15;;;1.10;;
34481;SDS011;20720;48.886;9.388;2023-11-21T02:02:07;3.80;;;0.93;;
34481;SDS011;20720;48.886;9.388;2023-11-21T02:04:34;5.55;;;1.13;;
34481;SDS011;20720;48.886;9.388;2023-11-21T02:07:04;5.28;;;1.70;;
34481;SDS011;20720;48.886;9.388;2023-11-21T02:09:32;4.70;;;1.30;;
34481;SDS011;20720;48.886;9.388;2023-11-21T02:11:58;5.10;;;1.10;;
34481;SDS011;20720;48.886;9.388;2023-11-21T02:14:25;7.32;;;1.48;;
34481;SDS011;20720;48.886;9.388;2023-11-21T02:16:51;6.80;;;1.20;;
34481;SDS011;20720;48.886;9.388;2023-11-21T02:19:17;3.75;;;1.27;;
34481;SDS011;20720;48.886;9.388;2023-11-21T02:21:49;6.80;;;1.33;;
34481;SDS011;20720;48.886;9.388;2023-11-21T02:24:15;4.57;;;1.20;;
34481;SDS011;20720;48.886;9.388;2023-11-21T02:26:42;6.00;;;1.63;;
34481;SDS011;20720;48.886;9.388;2023-11-21T02:29:07;7.90;;;1.83;;
34481;SDS011;20720;48.886;9.388;2023-11-21T02:31:35;3.92;;;1.20;;
34481;SDS011;20720;48.886;9.388;2023-11-21T02:34:02;6.25;;;1.30;;
34481;SDS011;20720;48.886;9.388;2023-11-21T02:36:28;3.75;;;1.27;;
34481;SDS011;20720;48.886;9.388;2023-11-21T02:38:53;6.30;;;1.58;;
34481;SDS011;20720;48.886;9.388;2023-11-21T02:41:18;4.78;;;0.98;;
34481;SDS011;20720;48.886;9.388;2023-11-21T02:43:43;5.40;;;1.20;;
34481;SDS011;20720;48.886;9.388;2023-11-21T02:46:09;4.00;;;1.25;;
34481;SDS011;20720;48.886;9.388;2023-11-21T02:48:34;3.85;;;0.82;;
34481;SDS011;20720;48.886;9.388;2023-11-21T02:51:00;2.88;;;0.90;;
34481;SDS011;20720;48.886;9.388;2023-11-21T02:53:26;2.17;;;0.90;;
34481;SDS011;20720;48.886;9.388;2023-11-21T02:55:51;4.55;;;1.10;;
34481;SDS011;20720;48.886;9.388;2023-11-21T02:58:17;4.82;;;0.88;;
34481;SDS011;20720;48.886;9.388;2023-11-21T03:00:42;3.22;;;0.70;;
34481;SDS011;20720;48.886;9.388;2023-11-21T03:03:07;4.75;;;1.10;;
34481;SDS011;20720;48.886;9.388;2023-11-21T03:05:33;11.45;;;1.08;;
34481;SDS011;20720;48.886;9.388;2023-11-21T03:08:00;3.40;;;0.90;;
34481;SDS011;20720;48.886;9.388;2023-11-21T03:10:25;4.53;;;0.95;;
34481;SDS011;20720;48.886;9.388;2023-11-21T03:12:50;3.65;;;1.27;;
34481;SDS011;20720;48.886;9.388;2023-11-21T03:15:16;2.95;;;0.70;;
34481;SDS011;20720;48.886;9.388;2023-11-21T03:17:41;2.30;;;0.80;;
34481;SDS011;20720;48.886;9.388;2023-11-21T03:20:07;2.58;;;0.73;;
34481;SDS011;20720;48.886;9.388;2023-11-21T03:22:35;2.03;;;0.70;;
34481;SDS011;20720;48.886;9.388;2023-11-21T03:25:01;2.55;;;0.85;;
34481;SDS011;20720;48.886;9.388;2023-11-21T03:27:26;3.30;;;1.05;;
34481;SDS011;20720;48.886;9.388;2023-11-21T03:29:51;4.95;;;0.80;;
34481;SDS011;20720;48.886;9.388;2023-11-21T03:32:17;5.25;;;0.70;;
34481;SDS011;20720;48.886;9.388;2023-11-21T03:34:55;3.58;;;0.90;;
34481;SDS011;20720;48.886;9.388;2023-11-21T03:37:23;3.42;;;0.95;;
34481;SDS011;20720;48.886;9.388;2023-11-21T03:39:49;3.10;;;0.82;;
34481;SDS011;20720;48.886;9.388;2023-11-21T03:42:15;4.63;;;1.05;;
34481;SDS011;20720;48.886;9.388;2023-11-21T03:44:40;2.15;;;0.80;;
34481;SDS011;20720;48.886;9.388;2023-11-21T03:47:05;5.93;;;0.77;;
34481;SDS011;20720;48.886;9.388;2023-11-21T03:49:30;2.95;;;0.80;;
34481;SDS011;20720;48.886;9.388;2023-11-21T03:51:56;2.05;;;0.80;;
34481;SDS011;20720;48.886;9.388;2023-11-21T03:54:21;3.75;;;0.98;;
34481;SDS011;20720;48.886;9.388;2023-11-21T03:56:46;4.13;;;1.10;;
34481;SDS011;20720;48.886;9.388;2023-11-21T03:59:11;3.80;;;1.00;;
34481;SDS011;20720;48.886;9.388;2023-11-21T04:01:37;3.45;;;0.98;;
34481;SDS011;20720;48.886;9.388;2023-11-21T04:04:02;2.72;;;0.95;;
34481;SDS011;20720;48.886;9.388;2023-11-21T04:06:28;2.92;;;0.60;;
34481;SDS011;20720;48.886;9.388;2023-11-21T04:08:53;2.33;;;0.80;;
34481;SDS011;20720;48.886;9.388;2023-11-21T04:11:19;2.45;;;0.75;;
34481;SDS011;20720;48.886;9.388;2023-11-21T04:13:44;2.67;;;0.93;;
34481;SDS011;20720;48.886;9.388;2023-11-21T04:16:09;3.50;;;0.90;;
34481;SDS011;20720;48.886;9.388;2023-11-21T04:18:37;2.72;;;0.93;;
34481;SDS011;20720;48.886;9.388;2023-11-21T04:21:04;3.72;;;0.98;;
34481;SDS011;20720;48.886;9.388;2023-11-21T04:23:30;2.80;;;0.80;;
34481;SDS011;20720;48.886;9.388;2023-11-21T04:25:56;7.82;;;1.35;;
34481;SDS011;20720;48.886;9.388;2023-11-21T04:28:22;1.98;;;0.60;;
34481;SDS011;20720;48.886;9.388;2023-11-21T04:30:49;4.68;;;0.82;;
34481;SDS011;20720;48.886;9.388;2023-11-21T04:33:15;2.95;;;0.73;;
34481;SDS011;20720;48.886;9.388;2023-11-21T04:35:40;2.58;;;0.80;;
34481;SDS011;20720;48.886;9.388;2023-11-21T04:38:05;3.42;;;0.82;;
34481;SDS011;20720;48.886;9.388;2023-11-21T04:40:30;3.03;;;0.85;;
34481;SDS011;20720;48.886;9.388;2023-11-21T04:42:56;5.15;;;0.95;;
34481;SDS011;20720;48.886;9.388;2023-11-21T04:45:22;4.13;;;0.88;;
34481;SDS011;20720;48.886;9.388;2023-11-21T04:47:47;3.00;;;0.70;;
34481;SDS011;20720;48.886;9.388;2023-11-21T04:50:12;2.13;;;0.70;;
34481;SDS011;20720;48.886;9.388;2023-11-21T04:52:38;3.67;;;1.13;;
34481;SDS011;20720;48.886;9.388;2023-11-21T04:55:03;2.05;;;0.68;;
34481;SDS011;20720;48.886;9.388;2023-11-21T04:57:29;1.83;;;0.68;;
34481;SDS011;20720;48.886;9.388;2023-11-21T04:59:54;2.13;;;0.75;;
34481;SDS011;20720;48.886;9.388;2023-11-21T05:02:19;2.58;;;0.60;;
34481;SDS011;20720;48.886;9.388;2023-11-21T05:04:46;6.40;;;0.75;;
34481;SDS011;20720;48.886;9.388;2023-11-21T05:07:11;2.28;;;0.70;;
34481;SDS011;20720;48.886;9.388;2023-11-21T05:09:40;4.95;;;0.80;;
34481;SDS011;20720;48.886;9.388;2023-11-21T05:12:06;1.80;;;0.73;;
34481;SDS011;20720;48.886;9.388;2023-11-21T05:14:32;2.05;;;0.50;;
34481;SDS011;20720;48.886;9.388;2023-11-21T05:16:57;1.65;;;0.52;;
34481;SDS011;20720;48.886;9.388;2023-11-21T05:19:24;2.42;;;0.90;;
34481;SDS011;20720;48.886;9.388;2023-11-21T05:21:49;2.70;;;0.80;;
34481;SDS011;20720;48.886;9.388;2023-11-21T05:24:14;3.10;;;0.80;;
34481;SDS011;20720;48.886;9.388;2023-11-21T05:26:40;2.92;;;0.70;;
34481;SDS011;20720;48.886;9.388;2023-11-21T05:29:05;4.32;;;0.75;;
34481;SDS011;20720;48.886;9.388;2023-11-21T05:31:30;4.05;;;1.00;;
34481;SDS011;20720;48.886;9.388;2023-11-21T05:33:56;1.77;;;0.60;;
34481;SDS011;20720;48.886;9.388;2023-11-21T05:36:21;3.78;;;0.93;;
34481;SDS011;20720;48.886;9.388;2023-11-21T05:38:46;3.95;;;1.10;;
34481;SDS011;20720;48.886;9.388;2023-11-21T05:41:11;2.22;;;0.95;;
34481;SDS011;20720;48.886;9.388;2023-11-21T05:43:38;3.92;;;1.20;;
34481;SDS011;20720;48.886;9.388;2023-11-21T05:46:04;1.77;;;1.00;;
34481;SDS011;20720;48.886;9.388;2023-11-21T05:48:30;4.38;;;1.10;;
34481;SDS011;20720;48.886;9.388;2023-11-21T05:50:56;4.22;;;0.80;;
34481;SDS011;20720;48.886;9.388;2023-11-21T05:53:21;2.08;;;0.80;;
34481;SDS011;20720;48.886;9.388;2023-11-21T05:55:46;3.35;;;0.90;;
34481;SDS011;20720;48.886;9.388;2023-11-21T05:58:12;4.13;;;0.88;;
34481;SDS011;20720;48.886;9.388;2023-11-21T06:00:38;2.03;;;0.70;;
34481;SDS011;20720;48.886;9.388;2023-11-21T06:03:04;2.55;;;0.82;;
34481;SDS011;20720;48.886;9.388;2023-11-21T06:05:31;2.22;;;0.70;;
34481;SDS011;20720;48.886;9.388;2023-11-21T06:07:58;1.77;;;0.70;;
34481;SDS011;20720;48.886;9.388;2023-11-21T06:10:24;3.53;;;0.80;;
34481;SDS011;20720;48.886;9.388;2023-11-21T06:12:50;2.22;;;0.47;;
34481;SDS011;20720;48.886;9.388;2023-11-21T06:15:15;2.28;;;0.90;;
34481;SDS011;20720;48.886;9.388;2023-11-21T06:17:41;2.40;;;0.65;;
34481;SDS011;20720;48.886;9.388;2023-11-21T06:20:08;2.95;;;0.82;;
34481;SDS011;20720;48.886;9.388;2023-11-21T06:22:38;3.20;;;0.75;;
34481;SDS011;20720;48.886;9.388;2023-11-21T06:25:04;3.88;;;0.80;;
34481;SDS011;20720;48.886;9.388;2023-11-21T06:27:31;3.63;;;0.60;;
34481;SDS011;20720;48.886;9.388;2023-11-21T06:29:58;1.10;;;0.50;;
34481;SDS011;20720;48.886;9.388;2023-11-21T06:32:23;2.03;;;0.70;;
34481;SDS011;20720;48.886;9.388;2023-11-21T06:34:48;2.70;;;0.68;;
34481;SDS011;20720;48.886;9.388;2023-11-21T06:37:14;2.22;;;0.60;;
34481;SDS011;20720;48.886;9.388;2023-11-21T06:39:40;2.00;;;0.50;;
34481;SDS011;20720;48.886;9.388;2023-11-21T06:42:05;3.17;;;0.50;;
34481;SDS011;20720;48.886;9.388;2023-11-21T06:44:31;3.70;;;0.60;;
34481;SDS011;20720;48.886;9.388;2023-11-21T06:46:56;1.23;;;0.40;;
34481;SDS011;20720;48.886;9.388;2023-11-21T06:49:21;2.17;;;0.60;;
34481;SDS011;20720;48.886;9.388;2023-11-21T06:51:48;3.38;;;0.65;;
34481;SDS011;20720;48.886;9.388;2023-11-21T06:54:13;2.90;;;0.70;;
34481;SDS011;20720;48.886;9.388;2023-11-21T06:56:39;1.92;;;0.60;;
34481;SDS011;20720;48.886;9.388;2023-11-21T06:59:04;6.85;;;0.80;;
34481;SDS011;20720;48.886;9.388;2023-11-21T07:01:30;2.65;;;0.80;;
34481;SDS011;20720;48.886;9.388;2023-11-21T07:03:59;2.22;;;0.80;;
34481;SDS011;20720;48.886;9.388;2023-11-21T07:06:24;2.42;;;1.10;;
34481;SDS011;20720;48.886;9.388;2023-11-21T07:08:49;1.40;;;0.70;;
34481;SDS011;20720;48.886;9.388;2023-11-21T07:11:14;7.43;;;1.00;;
34481;SDS011;20720;48.886;9.388;2023-11-21T07:13:39;2.65;;;1.05;;
34481;SDS011;20720;48.886;9.388;2023-11-21T07:16:05;3.00;;;0.93;;
34481;SDS011;20720;48.886;9.388;2023-11-21T07:18:31;3.53;;;1.27;;
34481;SDS011;20720;48.886;9.388;2023-11-21T07:20:56;2.38;;;1.02;;
34481;SDS011;20720;48.886;9.388;2023-11-21T07:23:23;4.82;;;1.20;;
34481;SDS011;20720;48.886;9.388;2023-11-21T07:25:49;2.47;;;1.05;;
34481;SDS011;20720;48.886;9.388;2023-11-21T07:28:14;2.45;;;1.00;;
34481;SDS011;20720;48.886;9.388;2023-11-21T07:30:40;2.65;;;0.85;;
34481;SDS011;20720;48.886;9.388;2023-11-21T07:33:05;3.05;;;0.90;;
34481;SDS011;20720;48.886;9.388;2023-11-21T07:35:31;2.65;;;0.70;;
34481;SDS011;20720;48.886;9.388;2023-11-21T07:37:56;1.92;;;0.77;;
34481;SDS011;20720;48.886;9.388;2023-11-21T07:40:22;1.92;;;0.60;;
34481;SDS011;20720;48.886;9.388;2023-11-21T07:42:47;1.52;;;0.57;;
34481;SDS011;20720;48.886;9.388;2023-11-21T07:45:13;2.72;;;0.70;;
34481;SDS011;20720;48.886;9.388;2023-11-21T07:47:40;3.22;;;0.85;;
34481;SDS011;20720;48.886;9.388;2023-11-21T07:50:05;1.77;;;0.75;;
34481;SDS011;20720;48.886;9.388;2023-11-21T07:52:32;1.80;;;0.68;;
34481;SDS011;20720;48.886;9.388;2023-11-21T07:54:57;2.42;;;0.60;;
34481;SDS011;20720;48.886;9.388;2023-11-21T07:57:22;3.85;;;0.73;;
34481;SDS011;20720;48.886;9.388;2023-11-21T07:59:48;4.97;;;0.88;;
34481;SDS011;20720;48.886;9.388;2023-11-21T08:02:13;1.88;;;0.65;;
34481;SDS011;20720;48.886;9.388;2023-11-21T08:04:39;2.50;;;0.90;;
34481;SDS011;20720;48.886;9.388;2023-11-21T08:07:04;3.15;;;0.60;;
34481;SDS011;20720;48.886;9.388;2023-11-21T08:09:30;3.50;;;1.17;;
34481;SDS011;20720;48.886;9.388;2023-11-21T08:11:55;2.55;;;1.00;;
34481;SDS011;20720;48.886;9.388;2023-11-21T08:14:21;1.63;;;0.82;;
34481;SDS011;20720;48.886;9.388;2023-11-21T08:16:47;2.55;;;0.80;;
34481;SDS011;20720;48.886;9.388;2023-11-21T08:19:12;4.93;;;1.27;;
34481;SDS011;20720;48.886;9.388;2023-11-21T08:21:37;2.88;;;0.90;;
34481;SDS011;20720;48.886;9.388;2023-11-21T08:24:04;3.85;;;1.10;;
34481;SDS011;20720;48.886;9.388;2023-11-21T08:26:30;3.22;;;1.10;;
34481;SDS011;20720;48.886;9.388;2023-11-21T08:28:56;2.80;;;0.90;;
34481;SDS011;20720;48.886;9.388;2023-11-21T08:31:25;4.07;;;1.02;;
34481;SDS011;20720;48.886;9.388;2023-11-21T08:33:51;5.60;;;1.42;;
34481;SDS011;20720;48.886;9.388;2023-11-21T08:36:20;4.28;;;1.05;;
34481;SDS011;20720;48.886;9.388;2023-11-21T08:38:46;3.83;;;1.30;;
34481;SDS011;20720;48.886;9.388;2023-11-21T08:41:11;2.83;;;1.10;;
34481;SDS011;20720;48.886;9.388;2023-11-21T08:43:36;1.98;;;1.10;;
34481;SDS011;20720;48.886;9.388;2023-11-21T08:46:05;2.95;;;1.05;;
34481;SDS011;20720;48.886;9.388;2023-11-21T08:48:33;2.85;;;1.17;;
34481;SDS011;20720;48.886;9.388;2023-11-21T08:50:58;2.50;;;1.10;;
34481;SDS011;20720;48.886;9.388;2023-11-21T08:53:24;3.75;;;1.67;;
34481;SDS011;20720;48.886;9.388;2023-11-21T08:55:51;3.28;;;1.27;;
34481;SDS011;20720;48.886;9.388;2023-11-21T08:58:16;3.50;;;1.50;;
34481;SDS011;20720;48.886;9.388;2023-11-21T09:00:42;2.25;;;1.20;;
34481;SDS011;20720;48.886;9.388;2023-11-21T09:03:09;2.25;;;1.17;;
34481;SDS011;20720;48.886;9.388;2023-11-21T09:05:37;2.35;;;1.27;;
34481;SDS011;20720;48.886;9.388;2023-11-21T09:08:03;2.28;;;1.10;;
34481;SDS011;20720;48.886;9.388;2023-11-21T09:10:29;3.20;;;1.30;;
34481;SDS011;20720;48.886;9.388;2023-11-21T09:12:54;2.13;;;1.05;;
34481;SDS011;20720;48.886;9.388;2023-11-21T09:15:19;3.20;;;1.10;;
34481;SDS011;20720;48.886;9.388;2023-11-21T09:17:45;3.70;;;1.20;;
34481;SDS011;20720;48.886;9.388;2023-11-21T09:20:10;3.78;;;1.40;;
34481;SDS011;20720;48.886;9.388;2023-11-21T09:22:36;3.05;;;1.25;;
34481;SDS011;20720;48.886;9.388;2023-11-21T09:25:01;2.22;;;1.08;;
34481;SDS011;20720;48.886;9.388;2023-11-21T09:27:30;2.88;;;1.30;;
34481;SDS011;20720;48.886;9.388;2023-11-21T09:29:55;5.20;;;1.20;;
34481;SDS011;20720;48.886;9.388;2023-11-21T09:32:20;2.75;;;1.02;;
34481;SDS011;20720;48.886;9.388;2023-11-21T09:34:46;1.85;;;1.00;;
34481;SDS011;20720;48.886;9.388;2023-11-21T09:37:12;1.90;;;0.90;;
34481;SDS011;20720;48.886;9.388;2023-11-21T09:39:38;1.98;;;1.00;;
34481;SDS011;20720;48.886;9.388;2023-11-21T09:42:06;2.95;;;0.93;;
34481;SDS011;20720;48.886;9.388;2023-11-21T09:47:07;2.60;;;0.90;;
34481;SDS011;20720;48.886;9.388;2023-11-21T09:49:35;2.05;;;1.02;;
34481;SDS011;20720;48.886;9.388;2023-11-21T09:52:02;2.70;;;0.75;;
34481;SDS011;20720;48.886;9.388;2023-11-21T09:54:28;2.30;;;1.10;;
34481;SDS011;20720;48.886;9.388;2023-11-21T09:56:56;2.08;;;1.00;;
34481;SDS011;20720;48.886;9.388;2023-11-21T09:59:23;2.85;;;0.95;;
34481;SDS011;20720;48.886;9.388;2023-11-21T10:01:48;1.77;;;0.90;;
34481;SDS011;20720;48.886;9.388;2023-11-21T10:04:15;2.45;;;0.88;;
34481;SDS011;20720;48.886;9.388;2023-11-21T10:06:42;1.60;;;0.90;;
34481;SDS011;20720;48.886;9.388;2023-11-21T10:09:11;4.18;;;1.10;;
34481;SDS011;20720;48.886;9.388;2023-11-21T10:11:41;2.13;;;0.70;;
34481;SDS011;20720;48.886;9.388;2023-11-21T10:14:10;1.45;;;0.80;;
34481;SDS011;20720;48.886;9.388;2023-11-21T10:16:38;2.78;;;0.90;;
34481;SDS011;20720;48.886;9.388;2023-11-21T10:19:04;5.80;;;0.90;;
34481;SDS011;20720;48.886;9.388;2023-11-21T10:21:32;1.40;;;0.77;;
34481;SDS011;20720;48.886;9.388;2023-11-21T10:23:58;0.90;;;0.60;;
34481;SDS011;20720;48.886;9.388;2023-11-21T10:26:23;1.35;;;0.60;;
34481;SDS011;20720;48.886;9.388;2023-11-21T10:28:58;1.70;;;0.65;;
34481;SDS011;20720;48.886;9.388;2023-11-21T10:31:26;1.10;;;0.70;;
34481;SDS011;20720;48.886;9.388;2023-11-21T10:33:52;1.17;;;0.50;;
34481;SDS011;20720;48.886;9.388;2023-11-21T10:36:27;0.90;;;0.40;;
34481;SDS011;20720;48.886;9.388;2023-11-21T10:38:53;0.80;;;0.40;;
34481;SDS011;20720;48.886;9.388;2023-11-21T10:41:19;0.93;;;0.55;;
34481;SDS011;20720;48.886;9.388;2023-11-21T10:43:45;1.30;;;0.60;;
34481;SDS011;20720;48.886;9.388;2023-11-21T10:46:10;1.50;;;0.77;;
34481;SDS011;20720;48.886;9.388;2023-11-21T10:48:36;3.13;;;0.77;;
34481;SDS011;20720;48.886;9.388;2023-11-21T10:51:06;1.70;;;0.60;;
34481;SDS011;20720;48.886;9.388;2023-11-21T10:53:38;1.77;;;0.80;;
34481;SDS011;20720;48.886;9.388;2023-11-21T10:56:06;2.30;;;0.80;;
34481;SDS011;20720;48.886;9.388;2023-11-21T10:58:36;1.83;;;0.70;;
34481;SDS011;20720;48.886;9.388;2023-11-21T11:01:03;2.05;;;0.63;;
34481;SDS011;20720;48.886;9.388;2023-11-21T11:03:31;2.50;;;1.38;;
34481;SDS011;20720;48.886;9.388;2023-11-21T11:05:58;2.17;;;1.25;;
34481;SDS011;20720;48.886;9.388;2023-11-21T11:08:24;2.13;;;1.20;;
34481;SDS011;20720;48.886;9.388;2023-11-21T11:10:52;2.03;;;1.23;;
34481;SDS011;20720;48.886;9.388;2023-11-21T11:13:17;2.42;;;1.33;;
34481;SDS011;20720;48.886;9.388;2023-11-21T11:15:43;1.60;;;1.00;;
34481;SDS011;20720;48.886;9.388;2023-11-21T11:18:12;1.65;;;0.90;;
34481;SDS011;20720;48.886;9.388;2023-11-21T11:20:41;1.27;;;0.70;;
34481;SDS011;20720;48.886;9.388;2023-11-21T11:37:05;4.45;;;2.70;;
34481;SDS011;20720;48.886;9.388;2023-11-21T11:39:38;2.92;;;1.80;;
34481;SDS011;20720;48.886;9.388;2023-11-21T11:42:08;2.83;;;1.45;;
34481;SDS011;20720;48.886;9.388;2023-11-21T11:47:14;2.58;;;1.50;;
34481;SDS011;20720;48.886;9.388;2023-11-21T11:49:57;2.50;;;1.15;;
34481;SDS011;20720;48.886;9.388;2023-11-21T11:55:09;2.40;;;1.40;;
34481;SDS011;20720;48.886;9.388;2023-11-21T11:57:45;1.57;;;1.20;;
34481;SDS011;20720;48.886;9.388;2023-11-21T12:00:19;1.63;;;1.20;;
34481;SDS011;20720;48.886;9.388;2023-11-21T12:02:53;1.77;;;1.13;;
34481;SDS011;20720;48.886;9.388;2023-11-21T12:05:20;3.70;;;1.30;;
34481;SDS011;20720;48.886;9.388;2023-11-21T12:10:15;2.03;;;1.33;;
34481;SDS011;20720;48.886;9.388;2023-11-21T12:12:46;1.67;;;0.80;;
34481;SDS011;20720;48.886;9.388;2023-11-21T12:15:13;1.60;;;1.00;;
34481;SDS011;20720;48.886;9.388;2023-11-21T12:17:39;2.35;;;1.10;;
34481;SDS011;20720;48.886;9.388;2023-11-21T12:20:08;1.65;;;1.00;;
34481;SDS011;20720;48.886;9.388;2023-11-21T12:22:41;1.23;;;0.82;;
34481;SDS011;20720;48.886;9.388;2023-11-21T12:25:07;1.05;;;0.70;;
34481;SDS011;20720;48.886;9.388;2023-11-21T12:27:33;1.10;;;0.70;;
34481;SDS011;20720;48.886;9.388;2023-11-21T12:29:58;1.70;;;0.57;;
34481;SDS011;20720;48.886;9.388;2023-11-21T12:32:24;1.05;;;0.60;;
34481;SDS011;20720;48.886;9.388;2023-11-21T12:34:50;0.75;;;0.40;;
34481;SDS011;20720;48.886;9.388;2023-11-21T12:37:16;1.13;;;0.65;;
34481;SDS011;20720;48.886;9.388;2023-11-21T12:39:42;1.20;;;0.90;;
34481;SDS011;20720;48.886;9.388;2023-11-21T12:42:07;1.08;;;0.60;;
34481;SDS011;20720;48.886;9.388;2023-11-21T12:44:32;1.17;;;0.70;;
34481;SDS011;20720;48.886;9.388;2023-11-21T12:46:58;1.50;;;0.80;;
34481;SDS011;20720;48.886;9.388;2023-11-21T12:49:24;2.05;;;1.02;;
34481;SDS011;20720;48.886;9.388;2023-11-21T12:51:50;1.17;;;0.65;;
34481;SDS011;20720;48.886;9.388;2023-11-21T12:54:15;1.20;;;0.75;;
34481;SDS011;20720;48.886;9.388;2023-11-21T12:56:41;1.23;;;0.80;;
34481;SDS011;20720;48.886;9.388;2023-11-21T12:59:06;1.70;;;0.98;;
34481;SDS011;20720;48.886;9.388;2023-11-21T13:01:31;1.65;;;1.00;;
34481;SDS011;20720;48.886;9.388;2023-11-21T13:03:57;1.80;;;1.00;;
34481;SDS011;20720;48.886;9.388;2023-11-21T13:06:27;1.63;;;1.10;;
34481;SDS011;20720;48.886;9.388;2023-11-21T13:08:52;3.45;;;1.52;;
34481;SDS011;20720;48.886;9.388;2023-11-21T13:11:22;1.83;;;1.30;;
34481;SDS011;20720;48.886;9.388;2023-11-21T13:13:47;3.00;;;2.13;;
34481;SDS011;20720;48.886;9.388;2023-11-21T13:16:14;2.70;;;1.63;;
34481;SDS011;20720;48.886;9.388;2023-11-21T13:18:40;2.40;;;1.70;;
34481;SDS011;20720;48.886;9.388;2023-11-21T13:21:08;5.15;;;1.20;;
34481;SDS011;20720;48.886;9.388;2023-11-21T13:23:39;1.60;;;1.08;;
34481;SDS011;20720;48.886;9.388;2023-11-21T13:26:06;2.47;;;1.30;;
34481;SDS011;20720;48.886;9.388;2023-11-21T13:28:32;1.90;;;1.30;;
34481;SDS011;20720;48.886;9.388;2023-11-21T13:30:58;2.78;;;1.63;;
34481;SDS011;20720;48.886;9.388;2023-11-21T13:33:28;3.63;;;1.90;;
34481;SDS011;20720;48.886;9.388;2023-11-21T13:35:53;3.20;;;1.50;;
34481;SDS011;20720;48.886;9.388;2023-11-21T13:38:21;2.97;;;1.50;;
34481;SDS011;20720;48.886;9.388;2023-11-21T13:40:52;1.67;;;1.02;;
34481;SDS011;20720;48.886;9.388;2023-11-21T13:43:20;1.92;;;1.00;;
34481;SDS011;20720;48.886;9.388;2023-11-21T13:45:47;3.15;;;1.10;;
34481;SDS011;20720;48.886;9.388;2023-11-21T13:48:24;1.45;;;0.60;;
34481;SDS011;20720;48.886;9.388;2023-11-21T13:50:56;1.35;;;0.65;;
34481;SDS011;20720;48.886;9.388;2023-11-21T13:53:33;0.90;;;0.55;;
34481;SDS011;20720;48.886;9.388;2023-11-21T13:56:01;2.25;;;0.50;;
34481;SDS011;20720;48.886;9.388;2023-11-21T13:58:26;1.80;;;0.73;;
34481;SDS011;20720;48.886;9.388;2023-11-21T14:01:15;1.75;;;0.70;;
34481;SDS011;20720;48.886;9.388;2023-11-21T14:03:56;1.77;;;0.60;;
34481;SDS011;20720;48.886;9.388;2023-11-21T14:06:45;1.88;;;0.75;;
34481;SDS011;20720;48.886;9.388;2023-11-21T14:09:15;1.05;;;0.52;;
34481;SDS011;20720;48.886;9.388;2023-11-21T14:11:54;1.40;;;0.55;;
34481;SDS011;20720;48.886;9.388;2023-11-21T14:14:22;1.13;;;0.40;;
34481;SDS011;20720;48.886;9.388;2023-11-21T14:16:50;1.45;;;0.35;;
34481;SDS011;20720;48.886;9.388;2023-11-21T14:19:15;1.10;;;0.50;;
34481;SDS011;20720;48.886;9.388;2023-11-21T14:21:42;1.23;;;0.40;;
34481;SDS011;20720;48.886;9.388;2023-11-21T14:24:08;1.15;;;0.40;;
34481;SDS011;20720;48.886;9.388;2023-11-21T14:26:34;1.25;;;0.50;;
34481;SDS011;20720;48.886;9.388;2023-11-21T14:29:00;0.77;;;0.38;;
34481;SDS011;20720;48.886;9.388;2023-11-21T14:31:25;1.23;;;0.50;;
34481;SDS011;20720;48.886;9.388;2023-11-21T14:33:52;0.98;;;0.50;;
34481;SDS011;20720;48.886;9.388;2023-11-21T14:36:17;1.10;;;0.50;;
34481;SDS011;20720;48.886;9.388;2023-11-21T14:38:43;2.35;;;0.57;;
34481;SDS011;20720;48.886;9.388;2023-11-21T14:41:08;1.55;;;0.68;;
34481;SDS011;20720;48.886;9.388;2023-11-21T14:43:36;1.40;;;0.80;;
34481;SDS011;20720;48.886;9.388;2023-11-21T14:46:02;19.27;;;12.40;;
34481;SDS011;20720;48.886;9.388;2023-11-21T14:48:34;14.02;;;9.70;;
34481;SDS011;20720;48.886;9.388;2023-11-21T14:51:12;13.45;;;7.45;;
34481;SDS011;20720;48.886;9.388;2023-11-21T14:53:52;30.08;;;17.55;;
34481;SDS011;20720;48.886;9.388;2023-11-21T14:56:22;39.45;;;24.65;;
34481;SDS011;20720;48.886;9.388;2023-11-21T14:58:52;27.95;;;17.98;;
34481;SDS011;20720;48.886;9.388;2023-11-21T15:01:18;18.33;;;11.18;;
34481;SDS011;20720;48.886;9.388;2023-11-21T15:03:55;14.68;;;9.45;;
34481;SDS011;20720;48.886;9.388;2023-11-21T15:06:21;9.63;;;6.18;;
34481;SDS011;20720;48.886;9.388;2023-11-21T15:08:55;11.35;;;5.50;;